Amherst Junction, Wisconsin
Current Conditions -  °F | °C
As of 9:55 AM on Friday 21 Nov 2014 (Local Time) from KSTE Reporting Station
Clear Clear  
Wind Chill:   Ceiling: Unl
Heat Index: 13°   Visibility: 10mi
Dew Point:   Wind: 10mph
Humidity: 60%   Direction: 190°S
Pressure: 30.31"   Gusts: NA
Location:  44.47°N, 89.31°W
Report Text: KSTE 211555Z AUTO 19009KT 10SM CLR M11/M17 A3031 RMK AO2 T11071171
Loading
Personal Weather Stations






























Interactive Weather Map New forecast layout! Learn more

10-Day Weather Forecast

Advertisements
Track Severe Weather on mobile